sensor_id;sensor_type;location;lat;lon;timestamp;temperature;humidity
9802;DHT22;4940;50.900;4.672;2023-02-21T00:14:06;9.00;99.90
9802;DHT22;4940;50.900;4.672;2023-02-21T00:25:07;8.90;99.90
9802;DHT22;4940;50.900;4.672;2023-02-21T00:30:38;8.90;99.90
9802;DHT22;4940;50.900;4.672;2023-02-21T00:47:10;8.80;99.90
9802;DHT22;4940;50.900;4.672;2023-02-21T00:52:40;8.80;99.90
9802;DHT22;4940;50.900;4.672;2023-02-21T01:03:42;8.80;99.90
9802;DHT22;4940;50.900;4.672;2023-02-21T01:20:14;8.70;99.90
9802;DHT22;4940;50.900;4.672;2023-02-21T01:31:16;8.70;99.90
9802;DHT22;4940;50.900;4.672;2023-02-21T01:48:33;8.70;99.90
9802;DHT22;4940;50.900;4.672;2023-02-21T01:51:20;8.60;99.90
9802;DHT22;4940;50.900;4.672;2023-02-21T01:54:08;8.60;99.90
9802;DHT22;4940;50.900;4.672;2023-02-21T01:56:54;8.90;99.90
9802;DHT22;4940;50.900;4.672;2023-02-21T01:59:40;8.60;99.90
9802;DHT22;4940;50.900;4.672;2023-02-21T02:02:29;8.50;99.90
9802;DHT22;4940;50.900;4.672;2023-02-21T02:05:16;8.60;99.90
9802;DHT22;4940;50.900;4.672;2023-02-21T02:10:53;8.50;99.90
9802;DHT22;4940;50.900;4.672;2023-02-21T02:13:52;8.60;99.90
9802;DHT22;4940;50.900;4.672;2023-02-21T02:16:28;8.60;99.90
9802;DHT22;4940;50.900;4.672;2023-02-21T02:22:21;8.60;99.90
9802;DHT22;4940;50.900;4.672;2023-02-21T02:25:19;8.60;99.90
9802;DHT22;4940;50.900;4.672;2023-02-21T02:28:25;8.60;99.90
9802;DHT22;4940;50.900;4.672;2023-02-21T02:31:24;8.40;99.90
9802;DHT22;4940;50.900;4.672;2023-02-21T02:34:24;8.60;99.90
9802;DHT22;4940;50.900;4.672;2023-02-21T02:36:58;8.50;99.90
9802;DHT22;4940;50.900;4.672;2023-02-21T02:39:32;8.60;99.90
9802;DHT22;4940;50.900;4.672;2023-02-21T02:42:09;8.60;99.90
9802;DHT22;4940;50.900;4.672;2023-02-21T02:44:39;8.70;99.90
9802;DHT22;4940;50.900;4.672;2023-02-21T02:47:11;8.70;99.90
9802;DHT22;4940;50.900;4.672;2023-02-21T02:49:42;8.60;99.90
9802;DHT22;4940;50.900;4.672;2023-02-21T02:57:07;8.70;99.90
9802;DHT22;4940;50.900;4.672;2023-02-21T02:59:39;8.60;99.90
9802;DHT22;4940;50.900;4.672;2023-02-21T03:02:30;8.60;99.90
9802;DHT22;4940;50.900;4.672;2023-02-21T03:05:16;8.60;99.90
9802;DHT22;4940;50.900;4.672;2023-02-21T03:07:53;8.60;99.90
9802;DHT22;4940;50.900;4.672;2023-02-21T03:10:31;8.60;99.90
9802;DHT22;4940;50.900;4.672;2023-02-21T03:13:05;8.40;99.90
9802;DHT22;4940;50.900;4.672;2023-02-21T03:15:39;8.60;99.90
9802;DHT22;4940;50.900;4.672;2023-02-21T03:18:13;8.60;99.90
9802;DHT22;4940;50.900;4.672;2023-02-21T03:20:45;8.60;99.90
9802;DHT22;4940;50.900;4.672;2023-02-21T03:23:13;8.60;99.90
9802;DHT22;4940;50.900;4.672;2023-02-21T03:25:42;8.50;99.90
9802;DHT22;4940;50.900;4.672;2023-02-21T03:28:11;8.50;99.90
9802;DHT22;4940;50.900;4.672;2023-02-21T03:30:40;8.60;99.90
9802;DHT22;4940;50.900;4.672;2023-02-21T03:38:05;8.50;99.90
9802;DHT22;4940;50.900;4.672;2023-02-21T03:40:33;8.50;99.90
9802;DHT22;4940;50.900;4.672;2023-02-21T03:43:02;8.50;99.90
9802;DHT22;4940;50.900;4.672;2023-02-21T03:45:32;8.50;99.90
9802;DHT22;4940;50.900;4.672;2023-02-21T03:55:22;8.50;99.90
9802;DHT22;4940;50.900;4.672;2023-02-21T04:00:17;8.50;99.90
9802;DHT22;4940;50.900;4.672;2023-02-21T04:10:07;8.40;99.90
9802;DHT22;4940;50.900;4.672;2023-02-21T04:12:36;8.40;99.90
9802;DHT22;4940;50.900;4.672;2023-02-21T04:15:04;8.70;99.90
9802;DHT22;4940;50.900;4.672;2023-02-21T04:29:50;8.40;99.90
9802;DHT22;4940;50.900;4.672;2023-02-21T04:47:04;8.20;99.90
9802;DHT22;4940;50.900;4.672;2023-02-21T05:04:18;8.10;99.90
9802;DHT22;4940;50.900;4.672;2023-02-21T05:21:35;8.00;99.90
9802;DHT22;4940;50.900;4.672;2023-02-21T05:26:34;7.60;99.90
9802;DHT22;4940;50.900;4.672;2023-02-21T05:31:29;7.90;99.90
9802;DHT22;4940;50.900;4.672;2023-02-21T05:33:57;7.70;99.90
9802;DHT22;4940;50.900;4.672;2023-02-21T05:38:54;7.90;99.90
9802;DHT22;4940;50.900;4.672;2023-02-21T05:41:22;7.90;99.90
9802;DHT22;4940;50.900;4.672;2023-02-21T05:46:22;7.90;99.90
9802;DHT22;4940;50.900;4.672;2023-02-21T05:51:18;7.90;99.90
9802;DHT22;4940;50.900;4.672;2023-02-21T05:56:14;7.80;99.90
9802;DHT22;4940;50.900;4.672;2023-02-21T05:58:42;7.90;99.90
9802;DHT22;4940;50.900;4.672;2023-02-21T06:06:04;7.90;99.90
9802;DHT22;4940;50.900;4.672;2023-02-21T06:13:28;7.90;99.90
9802;DHT22;4940;50.900;4.672;2023-02-21T06:30:42;7.80;99.90
9802;DHT22;4940;50.900;4.672;2023-02-21T06:47:54;7.90;99.90
9802;DHT22;4940;50.900;4.672;2023-02-21T06:55:20;7.80;99.90
9802;DHT22;4940;50.900;4.672;2023-02-21T07:00:16;7.80;99.90
9802;DHT22;4940;50.900;4.672;2023-02-21T07:05:12;7.80;99.90
9802;DHT22;4940;50.900;4.672;2023-02-21T07:15:04;7.90;99.90
9802;DHT22;4940;50.900;4.672;2023-02-21T07:17:31;7.90;99.90
9802;DHT22;4940;50.900;4.672;2023-02-21T07:22:27;7.90;99.90
9802;DHT22;4940;50.900;4.672;2023-02-21T07:39:41;8.00;99.90
9802;DHT22;4940;50.900;4.672;2023-02-21T07:56:55;8.20;99.90
9802;DHT22;4940;50.900;4.672;2023-02-21T08:14:10;8.10;99.90
9802;DHT22;4940;50.900;4.672;2023-02-21T08:24:02;9.10;99.90
9802;DHT22;4940;50.900;4.672;2023-02-21T08:31:25;8.30;99.90
9802;DHT22;4940;50.900;4.672;2023-02-21T08:43:46;8.30;99.90
9802;DHT22;4940;50.900;4.672;2023-02-21T08:46:14;8.50;99.90
9802;DHT22;4940;50.900;4.672;2023-02-21T08:48:43;8.30;99.90
9802;DHT22;4940;50.900;4.672;2023-02-21T09:03:28;8.40;99.90
9802;DHT22;4940;50.900;4.672;2023-02-21T09:05:57;8.50;99.90
9802;DHT22;4940;50.900;4.672;2023-02-21T09:23:18;8.70;99.90
9802;DHT22;4940;50.900;4.672;2023-02-21T09:33:08;8.50;99.90
9802;DHT22;4940;50.900;4.672;2023-02-21T09:38:05;8.60;99.90
9802;DHT22;4940;50.900;4.672;2023-02-21T09:40:39;8.60;99.90
9802;DHT22;4940;50.900;4.672;2023-02-21T09:43:11;8.70;99.90
9802;DHT22;4940;50.900;4.672;2023-02-21T09:45:40;8.70;99.90
9802;DHT22;4940;50.900;4.672;2023-02-21T09:48:13;8.70;99.90
9802;DHT22;4940;50.900;4.672;2023-02-21T09:50:43;8.80;99.90
9802;DHT22;4940;50.900;4.672;2023-02-21T09:53:13;8.80;99.90
9802;DHT22;4940;50.900;4.672;2023-02-21T09:55:43;8.80;99.90
9802;DHT22;4940;50.900;4.672;2023-02-21T09:58:13;8.80;99.90
9802;DHT22;4940;50.900;4.672;2023-02-21T10:00:41;8.90;99.90
9802;DHT22;4940;50.900;4.672;2023-02-21T10:03:33;8.90;99.90
9802;DHT22;4940;50.900;4.672;2023-02-21T10:06:07;8.90;99.90
9802;DHT22;4940;50.900;4.672;2023-02-21T10:08:43;9.00;99.90
9802;DHT22;4940;50.900;4.672;2023-02-21T10:11:24;9.00;99.90
9802;DHT22;4940;50.900;4.672;2023-02-21T10:14:03;9.00;99.90
9802;DHT22;4940;50.900;4.672;2023-02-21T10:16:36;9.00;99.90
9802;DHT22;4940;50.900;4.672;2023-02-21T10:19:12;9.10;99.90
9802;DHT22;4940;50.900;4.672;2023-02-21T10:21:45;9.20;99.90
9802;DHT22;4940;50.900;4.672;2023-02-21T10:24:14;9.10;99.90
9802;DHT22;4940;50.900;4.672;2023-02-21T10:26:45;8.90;99.90
9802;DHT22;4940;50.900;4.672;2023-02-21T10:29:20;9.10;99.90
9802;DHT22;4940;50.900;4.672;2023-02-21T10:31:51;9.20;99.90
9802;DHT22;4940;50.900;4.672;2023-02-21T10:34:24;9.10;99.90
9802;DHT22;4940;50.900;4.672;2023-02-21T10:36:52;9.10;99.90
9802;DHT22;4940;50.900;4.672;2023-02-21T10:39:22;9.20;99.90
9802;DHT22;4940;50.900;4.672;2023-02-21T10:41:54;9.20;99.90
9802;DHT22;4940;50.900;4.672;2023-02-21T10:44:25;9.20;99.90
9802;DHT22;4940;50.900;4.672;2023-02-21T10:47:00;9.20;99.90
9802;DHT22;4940;50.900;4.672;2023-02-21T10:49:32;9.30;99.90
9802;DHT22;4940;50.900;4.672;2023-02-21T10:52:08;9.10;99.90
9802;DHT22;4940;50.900;4.672;2023-02-21T10:57:07;9.30;99.90
9802;DHT22;4940;50.900;4.672;2023-02-21T11:02:27;9.20;99.90
9802;DHT22;4940;50.900;4.672;2023-02-21T11:04:55;9.20;99.90
9802;DHT22;4940;50.900;4.672;2023-02-21T11:07:33;9.20;99.90
9802;DHT22;4940;50.900;4.672;2023-02-21T11:12:29;9.30;99.90
9802;DHT22;4940;50.900;4.672;2023-02-21T11:15:15;9.30;99.90
9802;DHT22;4940;50.900;4.672;2023-02-21T11:20:18;9.20;99.90
9802;DHT22;4940;50.900;4.672;2023-02-21T11:22:46;9.20;99.90
9802;DHT22;4940;50.900;4.672;2023-02-21T11:25:25;9.20;99.90
9802;DHT22;4940;50.900;4.672;2023-02-21T11:28:04;9.20;99.90
9802;DHT22;4940;50.900;4.672;2023-02-21T11:30:33;9.40;99.90
9802;DHT22;4940;50.900;4.672;2023-02-21T11:33:02;9.30;99.90
9802;DHT22;4940;50.900;4.672;2023-02-21T11:35:33;9.30;99.90
9802;DHT22;4940;50.900;4.672;2023-02-21T11:38:03;9.30;99.90
9802;DHT22;4940;50.900;4.672;2023-02-21T11:40:33;9.20;99.90
9802;DHT22;4940;50.900;4.672;2023-02-21T11:43:19;9.30;99.90
9802;DHT22;4940;50.900;4.672;2023-02-21T11:46:02;9.40;99.90
9802;DHT22;4940;50.900;4.672;2023-02-21T11:48:33;9.40;99.90
9802;DHT22;4940;50.900;4.672;2023-02-21T11:51:05;9.40;99.90
9802;DHT22;4940;50.900;4.672;2023-02-21T11:53:38;9.40;99.90
9802;DHT22;4940;50.900;4.672;2023-02-21T11:56:17;9.40;99.90
9802;DHT22;4940;50.900;4.672;2023-02-21T11:58:53;9.50;99.90
9802;DHT22;4940;50.900;4.672;2023-02-21T12:01:27;9.50;99.90
9802;DHT22;4940;50.900;4.672;2023-02-21T12:04:15;9.50;99.90
9802;DHT22;4940;50.900;4.672;2023-02-21T12:06:52;9.40;99.90
9802;DHT22;4940;50.900;4.672;2023-02-21T12:09:25;9.60;99.90
9802;DHT22;4940;50.900;4.672;2023-02-21T12:12:04;9.60;99.90
9802;DHT22;4940;50.900;4.672;2023-02-21T12:14:54;9.70;99.90
9802;DHT22;4940;50.900;4.672;2023-02-21T12:17:36;9.70;99.90
9802;DHT22;4940;50.900;4.672;2023-02-21T12:20:25;9.60;99.90
9802;DHT22;4940;50.900;4.672;2023-02-21T12:23:02;9.80;99.90
9802;DHT22;4940;50.900;4.672;2023-02-21T12:25:35;9.80;99.90
9802;DHT22;4940;50.900;4.672;2023-02-21T12:28:15;9.80;99.90
9802;DHT22;4940;50.900;4.672;2023-02-21T12:31:11;9.80;99.90
9802;DHT22;4940;50.900;4.672;2023-02-21T12:33:45;9.90;99.90
9802;DHT22;4940;50.900;4.672;2023-02-21T12:36:25;9.80;99.90
9802;DHT22;4940;50.900;4.672;2023-02-21T12:39:03;9.90;99.90
9802;DHT22;4940;50.900;4.672;2023-02-21T12:42:05;10.00;99.90
9802;DHT22;4940;50.900;4.672;2023-02-21T12:44:40;10.00;99.90
9802;DHT22;4940;50.900;4.672;2023-02-21T12:47:17;10.00;99.90
9802;DHT22;4940;50.900;4.672;2023-02-21T12:49:53;9.90;99.90
9802;DHT22;4940;50.900;4.672;2023-02-21T12:52:25;10.10;99.90
9802;DHT22;4940;50.900;4.672;2023-02-21T12:57:31;10.20;99.90
9802;DHT22;4940;50.900;4.672;2023-02-21T13:00:03;10.20;99.90
9802;DHT22;4940;50.900;4.672;2023-02-21T13:02:52;10.20;99.90
9802;DHT22;4940;50.900;4.672;2023-02-21T13:05:26;10.20;99.90
9802;DHT22;4940;50.900;4.672;2023-02-21T13:07:58;10.30;99.90
9802;DHT22;4940;50.900;4.672;2023-02-21T13:10:30;10.30;99.90
9802;DHT22;4940;50.900;4.672;2023-02-21T13:13:04;10.20;99.90
9802;DHT22;4940;50.900;4.672;2023-02-21T13:15:34;10.40;99.90
9802;DHT22;4940;50.900;4.672;2023-02-21T13:18:07;10.70;99.90
9802;DHT22;4940;50.900;4.672;2023-02-21T13:20:38;10.50;99.90
9802;DHT22;4940;50.900;4.672;2023-02-21T13:23:24;10.70;99.90
9802;DHT22;4940;50.900;4.672;2023-02-21T13:26:09;10.90;99.90
9802;DHT22;4940;50.900;4.672;2023-02-21T13:31:17;10.60;99.90
9802;DHT22;4940;50.900;4.672;2023-02-21T13:33:50;10.60;99.90
9802;DHT22;4940;50.900;4.672;2023-02-21T13:36:24;10.60;99.90
9802;DHT22;4940;50.900;4.672;2023-02-21T13:39:02;10.60;99.90
9802;DHT22;4940;50.900;4.672;2023-02-21T13:41:33;10.70;99.90
9802;DHT22;4940;50.900;4.672;2023-02-21T13:44:05;10.70;99.90
9802;DHT22;4940;50.900;4.672;2023-02-21T13:46:59;10.80;99.90
9802;DHT22;4940;50.900;4.672;2023-02-21T13:49:52;10.80;99.90
9802;DHT22;4940;50.900;4.672;2023-02-21T13:55:25;10.80;99.90
9802;DHT22;4940;50.900;4.672;2023-02-21T14:01:17;10.80;99.90
9802;DHT22;4940;50.900;4.672;2023-02-21T14:06:31;10.80;99.90
9802;DHT22;4940;50.900;4.672;2023-02-21T14:09:01;10.80;99.90
9802;DHT22;4940;50.900;4.672;2023-02-21T14:11:34;10.80;99.90
9802;DHT22;4940;50.900;4.672;2023-02-21T14:14:04;10.90;99.90
9802;DHT22;4940;50.900;4.672;2023-02-21T14:16:33;10.90;99.90
9802;DHT22;4940;50.900;4.672;2023-02-21T14:19:07;10.90;99.90
9802;DHT22;4940;50.900;4.672;2023-02-21T14:21:39;11.00;99.90
9802;DHT22;4940;50.900;4.672;2023-02-21T14:24:12;11.00;99.90
9802;DHT22;4940;50.900;4.672;2023-02-21T14:26:43;11.00;99.90
9802;DHT22;4940;50.900;4.672;2023-02-21T14:29:30;11.10;99.90
9802;DHT22;4940;50.900;4.672;2023-02-21T14:32:21;11.10;99.90
9802;DHT22;4940;50.900;4.672;2023-02-21T14:34:52;11.10;99.90
9802;DHT22;4940;50.900;4.672;2023-02-21T14:37:27;11.10;99.90
9802;DHT22;4940;50.900;4.672;2023-02-21T14:39:59;11.10;99.90
9802;DHT22;4940;50.900;4.672;2023-02-21T14:42:42;11.20;99.90
9802;DHT22;4940;50.900;4.672;2023-02-21T14:45:28;11.10;99.90
9802;DHT22;4940;50.900;4.672;2023-02-21T14:48:42;11.00;99.90
9802;DHT22;4940;50.900;4.672;2023-02-21T14:51:55;11.10;99.90
9802;DHT22;4940;50.900;4.672;2023-02-21T14:57:55;11.00;99.90
9802;DHT22;4940;50.900;4.672;2023-02-21T15:00:31;11.00;99.90
9802;DHT22;4940;50.900;4.672;2023-02-21T15:03:08;11.10;99.90
9802;DHT22;4940;50.900;4.672;2023-02-21T15:05:41;11.10;99.90
9802;DHT22;4940;50.900;4.672;2023-02-21T15:08:14;11.10;99.90
9802;DHT22;4940;50.900;4.672;2023-02-21T15:10:43;11.10;99.90
9802;DHT22;4940;50.900;4.672;2023-02-21T15:13:24;11.10;99.90
9802;DHT22;4940;50.900;4.672;2023-02-21T15:15:56;11.10;99.90
9802;DHT22;4940;50.900;4.672;2023-02-21T15:18:25;11.20;99.90
9802;DHT22;4940;50.900;4.672;2023-02-21T15:21:06;11.10;99.90
9802;DHT22;4940;50.900;4.672;2023-02-21T15:26:15;11.00;99.90
9802;DHT22;4940;50.900;4.672;2023-02-21T15:28:44;11.30;99.90
9802;DHT22;4940;50.900;4.672;2023-02-21T15:31:13;11.10;99.90
9802;DHT22;4940;50.900;4.672;2023-02-21T15:33:43;11.10;99.90
9802;DHT22;4940;50.900;4.672;2023-02-21T15:36:15;11.10;99.90
9802;DHT22;4940;50.900;4.672;2023-02-21T15:38:46;11.10;99.90
9802;DHT22;4940;50.900;4.672;2023-02-21T15:41:25;11.10;99.90
9802;DHT22;4940;50.900;4.672;2023-02-21T15:43:57;11.00;99.90
9802;DHT22;4940;50.900;4.672;2023-02-21T15:46:28;11.00;99.90
9802;DHT22;4940;50.900;4.672;2023-02-21T15:49:00;11.20;99.90
9802;DHT22;4940;50.900;4.672;2023-02-21T15:54:20;10.90;99.90
9802;DHT22;4940;50.900;4.672;2023-02-21T15:57:00;10.90;99.90
9802;DHT22;4940;50.900;4.672;2023-02-21T16:02:06;10.90;99.90
9802;DHT22;4940;50.900;4.672;2023-02-21T16:04:39;10.80;99.90
9802;DHT22;4940;50.900;4.672;2023-02-21T16:09:44;10.70;99.90
9802;DHT22;4940;50.900;4.672;2023-02-21T16:12:25;10.70;99.90
9802;DHT22;4940;50.900;4.672;2023-02-21T16:14:57;10.70;99.90
9802;DHT22;4940;50.900;4.672;2023-02-21T16:17:29;10.60;99.90
9802;DHT22;4940;50.900;4.672;2023-02-21T16:19:59;10.50;99.90
9802;DHT22;4940;50.900;4.672;2023-02-21T16:22:30;10.60;99.90
9802;DHT22;4940;50.900;4.672;2023-02-21T16:25:13;10.50;99.90
9802;DHT22;4940;50.900;4.672;2023-02-21T16:27:43;10.50;99.90
9802;DHT22;4940;50.900;4.672;2023-02-21T16:30:14;10.50;99.90
9802;DHT22;4940;50.900;4.672;2023-02-21T16:32:43;10.40;99.90
9802;DHT22;4940;50.900;4.672;2023-02-21T16:35:17;10.40;99.90
9802;DHT22;4940;50.900;4.672;2023-02-21T16:37:47;10.30;99.90
9802;DHT22;4940;50.900;4.672;2023-02-21T16:40:16;10.50;99.90
9802;DHT22;4940;50.900;4.672;2023-02-21T16:42:50;10.30;99.90
9802;DHT22;4940;50.900;4.672;2023-02-21T16:45:21;10.20;99.90
9802;DHT22;4940;50.900;4.672;2023-02-21T16:47:55;10.20;99.90
9802;DHT22;4940;50.900;4.672;2023-02-21T16:50:27;10.20;99.90
9802;DHT22;4940;50.900;4.672;2023-02-21T16:57:52;10.10;99.90
9802;DHT22;4940;50.900;4.672;2023-02-21T17:00:21;10.10;99.90
9802;DHT22;4940;50.900;4.672;2023-02-21T17:02:50;10.10;99.90
9802;DHT22;4940;50.900;4.672;2023-02-21T17:05:18;10.10;99.90
9802;DHT22;4940;50.900;4.672;2023-02-21T17:07:47;10.10;99.90
9802;DHT22;4940;50.900;4.672;2023-02-21T17:12:42;9.90;99.90
9802;DHT22;4940;50.900;4.672;2023-02-21T17:17:38;9.80;99.90
9802;DHT22;4940;50.900;4.672;2023-02-21T17:20:07;9.70;99.90
9802;DHT22;4940;50.900;4.672;2023-02-21T17:25:04;9.50;99.90
9802;DHT22;4940;50.900;4.672;2023-02-21T17:34:57;9.10;99.90
9802;DHT22;4940;50.900;4.672;2023-02-21T17:44:47;8.50;99.90
9802;DHT22;4940;50.900;4.672;2023-02-21T17:47:17;8.50;99.90
9802;DHT22;4940;50.900;4.672;2023-02-21T17:49:47;8.30;99.90
9802;DHT22;4940;50.900;4.672;2023-02-21T18:02:07;7.80;99.90
9802;DHT22;4940;50.900;4.672;2023-02-21T18:04:34;7.70;99.90
9802;DHT22;4940;50.900;4.672;2023-02-21T18:09:30;7.70;99.90
9802;DHT22;4940;50.900;4.672;2023-02-21T18:11:59;7.50;99.90
9802;DHT22;4940;50.900;4.672;2023-02-21T18:26:47;7.00;99.90
9802;DHT22;4940;50.900;4.672;2023-02-21T18:41:34;6.70;99.90
9802;DHT22;4940;50.900;4.672;2023-02-21T19:01:21;6.10;99.90
9802;DHT22;4940;50.900;4.672;2023-02-21T19:06:19;6.30;99.90
9802;DHT22;4940;50.900;4.672;2023-02-21T19:08:47;6.20;99.90
9802;DHT22;4940;50.900;4.672;2023-02-21T19:11:15;6.10;99.90
9802;DHT22;4940;50.900;4.672;2023-02-21T19:13:43;6.10;99.90
9802;DHT22;4940;50.900;4.672;2023-02-21T19:18:43;6.60;99.90
9802;DHT22;4940;50.900;4.672;2023-02-21T19:36:02;6.00;99.90
9802;DHT22;4940;50.900;4.672;2023-02-21T19:43:24;5.60;99.90
9802;DHT22;4940;50.900;4.672;2023-02-21T19:58:11;5.60;99.90
9802;DHT22;4940;50.900;4.672;2023-02-21T20:08:04;5.20;99.90
9802;DHT22;4940;50.900;4.672;2023-02-21T20:15:32;5.00;99.90
9802;DHT22;4940;50.900;4.672;2023-02-21T20:25:23;4.90;99.90
9802;DHT22;4940;50.900;4.672;2023-02-21T20:40:12;4.70;99.90
9802;DHT22;4940;50.900;4.672;2023-02-21T20:45:15;4.70;99.90
9802;DHT22;4940;50.900;4.672;2023-02-21T21:00:03;4.70;99.90
9802;DHT22;4940;50.900;4.672;2023-02-21T21:02:35;4.70;99.90
9802;DHT22;4940;50.900;4.672;2023-02-21T21:10:06;5.60;99.90
9802;DHT22;4940;50.900;4.672;2023-02-21T21:15:04;5.10;99.90
9802;DHT22;4940;50.900;4.672;2023-02-21T21:17:36;5.30;99.90
9802;DHT22;4940;50.900;4.672;2023-02-21T21:20:05;5.40;99.90
9802;DHT22;4940;50.900;4.672;2023-02-21T21:22:39;5.50;99.90
9802;DHT22;4940;50.900;4.672;2023-02-21T21:30:02;5.80;99.90
9802;DHT22;4940;50.900;4.672;2023-02-21T21:32:32;5.90;99.90
9802;DHT22;4940;50.900;4.672;2023-02-21T21:35:01;6.30;99.90
9802;DHT22;4940;50.900;4.672;2023-02-21T21:40:00;6.00;99.90
9802;DHT22;4940;50.900;4.672;2023-02-21T21:42:41;6.00;99.90
9802;DHT22;4940;50.900;4.672;2023-02-21T21:45:13;6.10;99.90
9802;DHT22;4940;50.900;4.672;2023-02-21T21:47:44;6.40;99.90
9802;DHT22;4940;50.900;4.672;2023-02-21T21:50:13;6.10;99.90
9802;DHT22;4940;50.900;4.672;2023-02-21T21:52:42;6.20;99.90
9802;DHT22;4940;50.900;4.672;2023-02-21T21:55:16;6.20;99.90
9802;DHT22;4940;50.900;4.672;2023-02-21T22:00:14;6.20;99.90
9802;DHT22;4940;50.900;4.672;2023-02-21T22:02:47;6.30;99.90
9802;DHT22;4940;50.900;4.672;2023-02-21T22:05:17;6.40;99.90
9802;DHT22;4940;50.900;4.672;2023-02-21T22:20:11;6.30;99.90
9802;DHT22;4940;50.900;4.672;2023-02-21T22:22:45;6.30;99.90
9802;DHT22;4940;50.900;4.672;2023-02-21T22:25:14;6.30;99.90
9802;DHT22;4940;50.900;4.672;2023-02-21T22:30:10;6.30;99.90
9802;DHT22;4940;50.900;4.672;2023-02-21T22:32:39;6.30;99.90
9802;DHT22;4940;50.900;4.672;2023-02-21T22:37:45;6.30;99.90
9802;DHT22;4940;50.900;4.672;2023-02-21T22:40:14;6.30;99.90
9802;DHT22;4940;50.900;4.672;2023-02-21T22:42:49;6.30;99.90
9802;DHT22;4940;50.900;4.672;2023-02-21T22:47:45;6.40;99.90
9802;DHT22;4940;50.900;4.672;2023-02-21T22:55:09;6.40;99.90
9802;DHT22;4940;50.900;4.672;2023-02-21T23:02:44;6.40;99.90
9802;DHT22;4940;50.900;4.672;2023-02-21T23:10:12;6.40;99.90
9802;DHT22;4940;50.900;4.672;2023-02-21T23:12:42;6.50;99.90
9802;DHT22;4940;50.900;4.672;2023-02-21T23:17:41;6.50;99.90
9802;DHT22;4940;50.900;4.672;2023-02-21T23:20:10;6.70;99.90
9802;DHT22;4940;50.900;4.672;2023-02-21T23:22:42;6.50;99.90
9802;DHT22;4940;50.900;4.672;2023-02-21T23:25:12;6.10;99.90
9802;DHT22;4940;50.900;4.672;2023-02-21T23:32:42;6.50;99.90
9802;DHT22;4940;50.900;4.672;2023-02-21T23:35:10;6.50;99.90
9802;DHT22;4940;50.900;4.672;2023-02-21T23:40:12;6.50;99.90
9802;DHT22;4940;50.900;4.672;2023-02-21T23:42:44;6.50;99.90
9802;DHT22;4940;50.900;4.672;2023-02-21T23:45:12;6.70;99.90
9802;DHT22;4940;50.900;4.672;2023-02-21T23:52:45;6.50;99.90
9802;DHT22;4940;50.900;4.672;2023-02-21T23:55:15;6.60;99.90
9802;DHT22;4940;50.900;4.672;2023-02-21T23:57:44;6.50;99.90
